Time;durP1;ratioP1;P1;durP2;ratioP2;P2;SDS_P1;SDS_P2;PMS_P1;PMS_P2;Temp;Humidity;BMP_temperature;BMP_pressure;BME280_temperature;BME280_humidity;BME280_pressure;Samples;Min_cycle;Max_cycle;Signal;HPM_P1;HPM_P2
2023/07/30 00:00:12;;;;;;;3.60;0.50;;;;;;;18.17;92.49;99736.31;5003933;28;20728;-91
2023/07/30 00:02:37;;;;;;;0.00;0.00;;;;;;;18.17;92.48;99730.00;5026616;28;20181;-90
2023/07/30 00:05:02;;;;;;;0.10;0.10;;;;;;;18.11;92.97;99724.03;5001036;28;20185;-90
2023/07/30 00:07:28;;;;;;;0.30;0.30;;;;;;;18.06;93.56;99727.09;5030938;28;20247;-89
2023/07/30 00:09:53;;;;;;;0.27;0.27;;;;;;;18.06;93.81;99732.63;5006882;28;20651;-90
2023/07/30 00:12:18;;;;;;;0.63;0.63;;;;;;;18.09;93.77;99731.91;5001859;28;20176;-91
2023/07/30 00:14:44;;;;;;;0.00;0.00;;;;;;;18.04;94.26;99737.75;5002090;28;20235;-89
2023/07/30 00:17:09;;;;;;;0.47;0.43;;;;;;;17.96;94.54;99750.72;5002454;28;20270;-89
2023/07/30 00:19:35;;;;;;;0.83;0.83;;;;;;;17.94;95.00;99755.00;5034016;28;20180;-89
2023/07/30 00:22:00;;;;;;;2.00;0.30;;;;;;;17.92;95.44;99749.06;5002475;28;20176;-90
2023/07/30 00:24:26;;;;;;;0.20;0.20;;;;;;;17.91;95.57;99739.19;5009315;28;20230;-90
2023/07/30 00:26:51;;;;;;;0.10;0.10;;;;;;;17.85;96.00;99744.28;5007926;28;20176;-90
2023/07/30 00:29:16;;;;;;;0.17;0.17;;;;;;;17.80;96.35;99739.09;5003752;28;20208;-90
2023/07/30 00:31:42;;;;;;;0.70;0.20;;;;;;;17.81;96.66;99746.19;5027810;28;20195;-90
2023/07/30 00:34:07;;;;;;;0.10;0.10;;;;;;;17.77;97.05;99742.59;5010923;28;20196;-89
2023/07/30 00:36:32;;;;;;;2.47;0.87;;;;;;;17.74;97.44;99738.59;5008396;28;20191;-91
2023/07/30 00:38:57;;;;;;;0.20;0.20;;;;;;;17.72;97.70;99743.72;5026329;28;20263;-89
2023/07/30 00:41:23;;;;;;;0.00;0.00;;;;;;;17.68;98.19;99744.84;5004145;28;20659;-90
2023/07/30 00:43:48;;;;;;;0.60;0.60;;;;;;;17.53;98.89;99747.41;5023224;28;20200;-90
2023/07/30 00:46:13;;;;;;;0.40;0.30;;;;;;;17.50;99.84;99750.94;5002021;28;20531;-90
2023/07/30 00:48:39;;;;;;;0.03;0.03;;;;;;;17.49;100.00;99754.84;5031043;28;20188;-89
2023/07/30 00:51:05;;;;;;;0.40;0.40;;;;;;;17.38;100.00;99755.88;5017497;28;20184;-89
2023/07/30 00:53:31;;;;;;;0.10;0.10;;;;;;;17.48;100.00;99766.25;5007817;28;20204;-89
2023/07/30 00:55:57;;;;;;;3.43;0.43;;;;;;;17.60;100.00;99768.78;5000416;28;20187;-90
2023/07/30 00:58:23;;;;;;;0.57;0.57;;;;;;;17.58;100.00;99768.38;5018156;28;20182;-91
2023/07/30 01:00:51;;;;;;;0.00;0.00;;;;;;;17.61;100.00;99767.63;5025128;28;20181;-91
2023/07/30 01:03:16;;;;;;;0.40;0.40;;;;;;;17.66;100.00;99770.06;5026463;28;20196;-89
2023/07/30 01:05:41;;;;;;;1.10;1.03;;;;;;;17.77;100.00;99778.50;5000413;28;20184;-91
2023/07/30 01:08:07;;;;;;;0.90;0.77;;;;;;;17.88;99.78;99784.97;5025570;28;20206;-90
2023/07/30 01:10:32;;;;;;;0.70;0.70;;;;;;;17.91;99.96;99784.19;4999260;28;20719;-88
2023/07/30 01:13:03;;;;;;;0.10;0.10;;;;;;;17.96;100.00;99780.31;5015444;28;20192;-90
2023/07/30 01:15:29;;;;;;;0.30;0.30;;;;;;;17.97;99.74;99787.44;5007164;28;20188;-89
2023/07/30 01:17:55;;;;;;;0.30;0.30;;;;;;;17.92;100.00;99787.75;5013328;28;20195;-88
2023/07/30 01:20:21;;;;;;;0.03;0.03;;;;;;;17.96;100.00;99781.13;5009636;28;20176;-90
2023/07/30 01:22:47;;;;;;;1.30;1.20;;;;;;;17.94;99.84;99788.19;5028518;28;20204;-90
2023/07/30 01:25:13;;;;;;;0.43;0.43;;;;;;;17.97;99.86;99792.97;5019836;28;20180;-89
2023/07/30 01:27:44;;;;;;;0.23;0.23;;;;;;;18.01;100.00;99804.84;5004785;28;20176;-89
2023/07/30 01:30:15;;;;;;;0.67;0.67;;;;;;;18.00;100.00;99803.28;4999630;28;20230;-89
2023/07/30 01:32:41;;;;;;;0.37;0.37;;;;;;;17.93;100.00;99806.72;5005199;28;20717;-89
2023/07/30 01:35:08;;;;;;;1.30;0.50;;;;;;;17.94;100.00;99815.81;5024020;28;20192;-91
2023/07/30 01:37:34;;;;;;;0.67;0.67;;;;;;;17.95;100.00;99811.91;5010978;28;20245;-88
2023/07/30 01:40:00;;;;;;;0.97;0.77;;;;;;;17.92;100.00;99818.16;5028311;28;20271;-89
2023/07/30 01:42:29;;;;;;;0.77;0.73;;;;;;;17.90;100.00;99814.97;5008080;28;20184;-90
2023/07/30 01:44:55;;;;;;;0.37;0.37;;;;;;;17.91;100.00;99809.06;5014002;28;20210;-89
2023/07/30 01:47:20;;;;;;;0.50;0.50;;;;;;;17.91;100.00;99805.53;5007580;28;20176;-89
2023/07/30 01:49:45;;;;;;;0.53;0.47;;;;;;;17.88;99.65;99807.06;5000116;28;20212;-89
2023/07/30 01:52:10;;;;;;;0.60;0.60;;;;;;;17.90;99.62;99806.69;5006681;28;20658;-90
2023/07/30 01:54:36;;;;;;;2.23;0.43;;;;;;;17.81;99.76;99813.31;5024615;28;20263;-89
2023/07/30 01:57:01;;;;;;;0.23;0.23;;;;;;;17.78;99.81;99819.56;4999745;28;20664;-90
2023/07/30 01:59:26;;;;;;;0.50;0.50;;;;;;;17.71;100.00;99816.72;5014313;28;20180;-89
2023/07/30 02:01:52;;;;;;;9.20;0.80;;;;;;;17.55;100.00;99813.34;5016033;28;20226;-89
2023/07/30 02:04:17;;;;;;;0.80;0.80;;;;;;;17.51;100.00;99821.56;5000671;28;20197;-88
2023/07/30 02:06:43;;;;;;;2.20;1.43;;;;;;;17.45;100.00;99822.25;5022870;28;20260;-91
2023/07/30 02:09:08;;;;;;;0.67;0.40;;;;;;;17.42;100.00;99825.78;5017466;28;20212;-90
2023/07/30 02:11:33;;;;;;;1.10;0.90;;;;;;;17.31;100.00;99822.84;5011501;28;20259;-90
2023/07/30 02:13:59;;;;;;;0.70;0.70;;;;;;;17.27;100.00;99829.47;5010067;28;20222;-89
2023/07/30 02:16:24;;;;;;;0.70;0.70;;;;;;;17.23;100.00;99827.47;5001619;28;20179;-90
2023/07/30 02:18:49;;;;;;;7.33;1.60;;;;;;;17.13;100.00;99830.84;5029005;28;20177;-89
2023/07/30 02:21:15;;;;;;;0.73;0.73;;;;;;;17.06;100.00;99827.16;4997063;28;20187;-90
2023/07/30 02:23:40;;;;;;;0.30;0.30;;;;;;;17.03;100.00;99834.22;5003156;28;20640;-89
2023/07/30 02:26:05;;;;;;;0.20;0.20;;;;;;;17.07;100.00;99829.59;5001186;28;20180;-89
2023/07/30 02:28:31;;;;;;;0.30;0.30;;;;;;;17.08;100.00;99825.66;5006499;28;20764;-89
2023/07/30 02:30:56;;;;;;;0.50;0.50;;;;;;;16.98;100.00;99822.72;5018573;28;20244;-91
2023/07/30 02:33:21;;;;;;;7.70;0.60;;;;;;;16.97;100.00;99824.69;4999135;28;20199;-89
2023/07/30 02:35:46;;;;;;;0.63;0.63;;;;;;;17.02;100.00;99827.13;5006152;28;20192;-90
2023/07/30 02:38:12;;;;;;;0.27;0.27;;;;;;;16.98;100.00;99831.78;5000444;28;20180;-89
2023/07/30 02:40:37;;;;;;;0.93;0.83;;;;;;;16.91;100.00;99834.41;5023147;28;20615;-91
2023/07/30 02:43:02;;;;;;;1.13;1.10;;;;;;;16.86;100.00;99829.22;5015488;28;20240;-89
2023/07/30 02:45:28;;;;;;;1.23;1.17;;;;;;;16.87;100.00;99826.09;5000040;28;20197;-89
2023/07/30 02:47:53;;;;;;;1.80;0.97;;;;;;;16.82;100.00;99829.16;4999656;28;20203;-89
2023/07/30 02:50:18;;;;;;;0.90;0.90;;;;;;;16.79;100.00;99826.34;5018484;28;20262;-89
2023/07/30 02:52:44;;;;;;;0.90;0.90;;;;;;;16.72;100.00;99826.22;5021465;28;20172;-89
2023/07/30 02:55:09;;;;;;;1.17;1.07;;;;;;;16.72;100.00;99824.25;4998213;28;20234;-90
2023/07/30 02:57:34;;;;;;;3.33;0.43;;;;;;;16.73;100.00;99836.88;5028289;28;20614;-90
2023/07/30 03:00:00;;;;;;;1.03;1.00;;;;;;;16.75;100.00;99837.31;5035252;28;20180;-89
2023/07/30 03:02:25;;;;;;;1.17;1.07;;;;;;;16.73;100.00;99828.59;5014517;28;20271;-90
2023/07/30 03:04:50;;;;;;;0.33;0.33;;;;;;;16.77;100.00;99836.94;5005657;28;20227;-90
2023/07/30 03:07:16;;;;;;;0.67;0.67;;;;;;;16.71;100.00;99833.69;5018678;28;20176;-90
2023/07/30 03:09:41;;;;;;;4.33;0.73;;;;;;;16.66;100.00;99829.25;5003916;28;20200;-89
2023/07/30 03:12:07;;;;;;;0.67;0.67;;;;;;;16.62;100.00;99833.09;4998072;28;20180;-90
2023/07/30 03:14:32;;;;;;;0.83;0.63;;;;;;;16.61;100.00;99831.50;5024191;28;20216;-90
2023/07/30 03:16:57;;;;;;;1.60;0.87;;;;;;;16.60;100.00;99835.44;4998964;28;20196;-90
2023/07/30 03:19:22;;;;;;;0.33;0.33;;;;;;;16.59;100.00;99836.59;4999237;28;20607;-91
2023/07/30 03:21:48;;;;;;;1.03;1.03;;;;;;;16.55;100.00;99842.06;4996939;28;20218;-90
2023/07/30 03:24:13;;;;;;;0.63;0.63;;;;;;;16.50;100.00;99850.63;4997265;28;20227;-90
2023/07/30 03:26:38;;;;;;;0.90;0.73;;;;;;;16.50;100.00;99844.34;5015207;28;20259;-89
2023/07/30 03:29:04;;;;;;;2.40;1.10;;;;;;;16.43;100.00;99841.44;5014723;28;20200;-89
2023/07/30 03:31:29;;;;;;;0.10;0.10;;;;;;;16.38;100.00;99838.97;4997048;28;20676;-89
2023/07/30 03:33:54;;;;;;;0.00;0.00;;;;;;;16.46;100.00;99849.75;5015023;28;20673;-89
2023/07/30 03:36:20;;;;;;;1.50;0.97;;;;;;;16.43;100.00;99852.47;5017047;28;20236;-90
2023/07/30 03:38:45;;;;;;;0.00;0.00;;;;;;;16.43;100.00;99846.94;5007220;28;20176;-91
2023/07/30 03:41:11;;;;;;;0.00;0.00;;;;;;;16.47;100.00;99858.81;5023906;28;20188;-88
2023/07/30 03:43:36;;;;;;;11.93;1.77;;;;;;;16.36;100.00;99864.94;4996778;28;20218;-88
2023/07/30 03:46:02;;;;;;;0.40;0.40;;;;;;;16.41;100.00;99869.38;5014524;28;20204;-90
2023/07/30 03:48:27;;;;;;;0.67;0.67;;;;;;;16.40;100.00;99867.78;5015078;28;20215;-90
2023/07/30 03:50:54;;;;;;;0.37;0.37;;;;;;;16.44;100.00;99873.34;5027446;28;20180;-90
2023/07/30 03:53:19;;;;;;;0.30;0.30;;;;;;;16.42;100.00;99864.66;5021527;28;20254;-89
2023/07/30 03:55:44;;;;;;;1.27;1.13;;;;;;;16.38;100.00;99875.63;5005099;28;20180;-88
2023/07/30 03:58:10;;;;;;;2.43;1.50;;;;;;;16.33;100.00;99873.13;5022529;28;20179;-89
2023/07/30 04:00:35;;;;;;;1.40;0.60;;;;;;;16.39;100.00;99877.22;4996223;28;20185;-89
2023/07/30 04:03:00;;;;;;;0.60;0.50;;;;;;;16.36;100.00;99877.94;5004599;28;20215;-88
2023/07/30 04:05:26;;;;;;;0.93;0.93;;;;;;;16.39;100.00;99877.22;5016538;28;20182;-89
2023/07/30 04:07:51;;;;;;;4.27;0.93;;;;;;;16.37;100.00;99874.03;5001533;28;20282;-90
2023/07/30 04:10:16;;;;;;;0.50;0.50;;;;;;;16.35;100.00;99874.38;4997387;28;20673;-89
2023/07/30 04:12:41;;;;;;;0.60;0.60;;;;;;;16.32;100.00;99877.84;5013080;28;20184;-89
2023/07/30 04:15:07;;;;;;;5.83;1.40;;;;;;;16.34;100.00;99883.00;5013540;28;20262;-91
2023/07/30 04:17:36;;;;;;;0.50;0.50;;;;;;;16.30;100.00;99873.88;5017416;28;20184;-90
2023/07/30 04:20:01;;;;;;;0.37;0.33;;;;;;;16.25;100.00;99876.94;5017759;28;20195;-87
2023/07/30 04:22:27;;;;;;;1.07;0.97;;;;;;;16.22;100.00;99885.94;5015359;28;20654;-89
2023/07/30 04:24:52;;;;;;;0.33;0.33;;;;;;;16.28;100.00;99889.97;5016332;28;20208;-90
2023/07/30 04:27:17;;;;;;;1.80;1.20;;;;;;;16.31;100.00;99889.25;5016746;28;20251;-89
2023/07/30 04:29:42;;;;;;;1.00;0.30;;;;;;;16.27;100.00;99882.88;5023676;28;20208;-90
2023/07/30 04:32:08;;;;;;;3.07;0.77;;;;;;;16.31;100.00;99887.28;4997888;28;20184;-89
2023/07/30 04:34:33;;;;;;;1.43;1.33;;;;;;;16.38;100.00;99888.59;5023705;28;20208;-90
2023/07/30 04:36:58;;;;;;;1.40;1.37;;;;;;;16.45;100.00;99889.53;5005017;28;20184;-90
2023/07/30 04:39:24;;;;;;;0.40;0.40;;;;;;;16.48;100.00;99891.56;5005931;28;20253;-90
2023/07/30 04:41:49;;;;;;;0.10;0.10;;;;;;;16.47;100.00;99889.97;5014399;28;20655;-89
2023/07/30 04:44:15;;;;;;;0.50;0.50;;;;;;;16.50;100.00;99894.78;5028235;28;20208;-89
2023/07/30 04:46:40;;;;;;;0.77;0.60;;;;;;;16.48;100.00;99891.56;5002363;28;20190;-90
2023/07/30 04:49:05;;;;;;;1.80;1.60;;;;;;;16.48;100.00;99899.81;5018276;28;20211;-90
2023/07/30 04:51:31;;;;;;;1.00;0.90;;;;;;;16.50;100.00;99900.28;5021955;28;20551;-90
2023/07/30 04:53:56;;;;;;;2.40;2.20;;;;;;;16.51;100.00;99901.88;5029453;28;20203;-89
2023/07/30 04:56:22;;;;;;;1.53;1.47;;;;;;;16.71;100.00;99901.88;5035475;28;20190;-90
2023/07/30 04:58:47;;;;;;;1.83;1.70;;;;;;;16.91;100.00;99908.94;5007837;28;20185;-89
2023/07/30 05:01:12;;;;;;;2.37;1.90;;;;;;;16.83;100.00;99902.50;5010502;28;20357;-89
2023/07/30 05:03:37;;;;;;;8.27;3.17;;;;;;;16.93;100.00;99910.19;5033592;28;20208;-89
2023/07/30 05:06:03;;;;;;;12.10;1.70;;;;;;;17.06;100.00;99916.28;5026752;28;20194;-88
2023/07/30 05:08:28;;;;;;;5.53;2.37;;;;;;;16.97;100.00;99910.25;5003879;28;20199;-90
2023/07/30 05:10:54;;;;;;;4.87;2.50;;;;;;;17.01;100.00;99899.25;5006298;28;20223;-89
2023/07/30 05:13:19;;;;;;;10.83;2.40;;;;;;;16.95;100.00;99899.56;5000818;28;20204;-91
2023/07/30 05:15:44;;;;;;;2.10;1.93;;;;;;;16.99;100.00;99902.38;5020570;28;20254;-90
2023/07/30 05:18:10;;;;;;;3.93;3.63;;;;;;;17.03;100.00;99899.69;5001158;28;20188;-89
2023/07/30 05:20:35;;;;;;;5.17;3.13;;;;;;;16.99;100.00;99890.53;5004422;28;20203;-88
2023/07/30 05:23:02;;;;;;;3.10;2.80;;;;;;;17.03;100.00;99896.91;5003543;28;20254;-90
2023/07/30 05:25:27;;;;;;;3.50;3.17;;;;;;;17.05;100.00;99891.81;5004041;28;20188;-89
2023/07/30 05:27:52;;;;;;;2.07;1.97;;;;;;;17.05;100.00;99902.88;5007462;28;20230;-89
2023/07/30 05:30:18;;;;;;;10.13;3.97;;;;;;;17.07;100.00;99901.34;5020160;28;20191;-89
2023/07/30 05:32:43;;;;;;;6.73;4.43;;;;;;;17.06;100.00;99896.19;5001678;28;20192;-89
2023/07/30 05:35:08;;;;;;;5.27;3.57;;;;;;;17.05;100.00;99900.91;5001447;28;20181;-89
2023/07/30 05:37:34;;;;;;;9.00;3.93;;;;;;;17.04;100.00;99896.53;5011283;28;20184;-90
2023/07/30 05:39:59;;;;;;;5.70;2.53;;;;;;;17.08;100.00;99902.16;5011594;28;20184;-89
2023/07/30 05:42:24;;;;;;;2.57;2.37;;;;;;;17.09;100.00;99900.97;5003135;28;20276;-90
2023/07/30 05:44:56;;;;;;;8.10;1.80;;;;;;;17.16;100.00;99893.59;5033925;28;20188;-90
2023/07/30 05:47:21;;;;;;;2.17;2.03;;;;;;;17.18;99.77;99882.97;5013477;28;20219;-89
2023/07/30 05:49:46;;;;;;;1.87;1.77;;;;;;;17.28;98.98;99881.56;5014710;28;20204;-90
2023/07/30 05:52:11;;;;;;;3.33;2.97;;;;;;;17.23;97.87;99879.13;5003238;28;20551;-89
2023/07/30 05:54:37;;;;;;;0.70;0.70;;;;;;;17.35;97.33;99873.38;5004126;28;20199;-89
2023/07/30 05:57:02;;;;;;;7.47;2.77;;;;;;;17.41;97.05;99882.97;5020170;28;20264;-89
2023/07/30 05:59:28;;;;;;;1.63;1.53;;;;;;;17.45;96.28;99891.31;5007969;28;20172;-90
2023/07/30 06:01:55;;;;;;;3.97;2.80;;;;;;;17.51;95.48;99890.63;5008530;28;20187;-88
2023/07/30 06:04:21;;;;;;;3.37;2.70;;;;;;;17.50;94.58;99883.50;5006598;28;20247;-87
2023/07/30 06:06:46;;;;;;;2.50;2.30;;;;;;;17.51;94.09;99882.34;5002290;28;20187;-87
2023/07/30 06:09:12;;;;;;;2.50;2.40;;;;;;;17.49;93.24;99887.41;5015776;28;20279;-88
2023/07/30 06:11:37;;;;;;;2.40;2.27;;;;;;;17.56;92.94;99886.75;5001786;28;20176;-87
2023/07/30 06:14:02;;;;;;;3.50;1.63;;;;;;;17.56;92.00;99878.44;5013212;28;20222;-86
2023/07/30 06:16:28;;;;;;;2.97;1.93;;;;;;;17.61;91.59;99885.63;5017038;28;20172;-88
2023/07/30 06:18:53;;;;;;;1.80;1.70;;;;;;;17.59;90.72;99879.66;5000842;28;20172;-87
2023/07/30 06:21:18;;;;;;;1.60;1.43;;;;;;;17.68;90.72;99875.50;5023868;28;20184;-87
2023/07/30 06:23:43;;;;;;;5.17;1.30;;;;;;;17.75;89.74;99883.88;5002269;28;20865;-87
2023/07/30 06:26:09;;;;;;;1.37;1.27;;;;;;;17.81;88.22;99865.03;5013983;28;20179;-87
2023/07/30 06:28:34;;;;;;;0.73;0.73;;;;;;;17.84;87.59;99865.06;5020377;28;20741;-87
2023/07/30 06:31:01;;;;;;;2.30;1.10;;;;;;;17.90;86.54;99861.97;4995941;28;20185;-87
2023/07/30 06:33:26;;;;;;;6.87;1.60;;;;;;;17.86;85.32;99858.38;5016187;28;20215;-87
2023/07/30 06:35:52;;;;;;;1.90;1.40;;;;;;;17.96;84.25;99871.53;5007369;28;20650;-88
2023/07/30 06:38:17;;;;;;;19.13;2.63;;;;;;;18.00;84.20;99875.13;4996975;28;20180;-87
2023/07/30 06:40:42;;;;;;;1.33;0.97;;;;;;;18.04;83.27;99864.91;5018419;28;20187;-87
2023/07/30 06:43:07;;;;;;;2.93;1.33;;;;;;;18.12;83.88;99872.16;5016002;28;20223;-87
2023/07/30 06:45:33;;;;;;;0.93;0.83;;;;;;;18.01;81.37;99860.94;5032984;28;20191;-86
2023/07/30 06:47:58;;;;;;;7.60;2.03;;;;;;;18.07;80.88;99870.47;5024672;28;20621;-87
2023/07/30 06:50:23;;;;;;;0.43;0.43;;;;;;;18.12;80.47;99878.47;4996000;28;20187;-87
2023/07/30 06:52:48;;;;;;;1.63;1.10;;;;;;;18.18;79.61;99880.88;5003039;28;20179;-88
2023/07/30 06:55:14;;;;;;;0.00;0.00;;;;;;;18.26;78.55;99877.06;5010674;28;20187;-86
2023/07/30 06:57:39;;;;;;;1.30;1.30;;;;;;;18.29;77.94;99879.84;5003589;28;20180;-87
2023/07/30 07:00:05;;;;;;;0.63;0.63;;;;;;;18.34;78.01;99887.00;5029704;28;20188;-86
2023/07/30 07:02:30;;;;;;;0.63;0.63;;;;;;;18.39;78.33;99889.47;5005955;28;20180;-87
2023/07/30 07:04:55;;;;;;;4.77;1.30;;;;;;;18.44;77.36;99891.88;5025385;28;20203;-87
2023/07/30 07:07:21;;;;;;;0.50;0.47;;;;;;;18.39;76.99;99895.00;5007324;28;20199;-86
2023/07/30 07:09:46;;;;;;;1.67;1.20;;;;;;;18.38;76.59;99896.16;4994782;28;20670;-87
2023/07/30 07:12:12;;;;;;;0.47;0.47;;;;;;;18.42;76.95;99897.78;5001650;28;20184;-87
2023/07/30 07:14:37;;;;;;;7.70;0.80;;;;;;;18.43;76.95;99893.84;4990772;28;20218;-88
2023/07/30 07:17:03;;;;;;;0.83;0.67;;;;;;;18.51;77.07;99916.03;5004993;28;20239;-87
2023/07/30 07:19:28;;;;;;;1.23;1.03;;;;;;;18.37;76.19;99884.31;5012661;28;20204;-86
2023/07/30 07:21:53;;;;;;;2.00;1.80;;;;;;;18.36;76.44;99888.22;5014533;28;20192;-86
2023/07/30 07:24:19;;;;;;;1.47;1.20;;;;;;;18.44;77.09;99894.66;5010518;28;20483;-87
2023/07/30 07:26:44;;;;;;;1.13;1.10;;;;;;;18.50;76.32;99890.34;4995509;28;20278;-87
2023/07/30 07:29:10;;;;;;;0.53;0.30;;;;;;;18.63;75.85;99893.66;4994776;28;20212;-88
2023/07/30 07:31:35;;;;;;;3.03;1.27;;;;;;;18.53;74.45;99875.78;5016984;28;20189;-88
2023/07/30 07:34:00;;;;;;;4.07;1.47;;;;;;;18.59;74.24;99881.75;5006743;28;20291;-88
2023/07/30 07:36:26;;;;;;;4.03;1.40;;;;;;;18.60;74.29;99878.63;4997693;28;20673;-87
2023/07/30 07:38:51;;;;;;;3.37;1.20;;;;;;;18.58;73.90;99886.50;5016295;28;20255;-87
2023/07/30 07:41:17;;;;;;;1.50;1.30;;;;;;;18.81;74.88;99903.00;5016423;28;20180;-87
2023/07/30 07:43:43;;;;;;;0.83;0.83;;;;;;;18.76;73.30;99896.97;4991599;28;20246;-86
2023/07/30 07:46:13;;;;;;;0.93;0.93;;;;;;;18.81;72.17;99896.66;5005743;28;20231;-87
2023/07/30 07:48:40;;;;;;;3.13;2.47;;;;;;;18.96;73.16;99903.94;4994834;28;20242;-88
2023/07/30 07:51:05;;;;;;;0.10;0.10;;;;;;;18.94;71.82;99890.44;5012043;28;20180;-88
2023/07/30 07:53:31;;;;;;;1.03;0.73;;;;;;;18.96;71.81;99895.63;4993834;28;20619;-87
2023/07/30 07:55:56;;;;;;;10.13;1.27;;;;;;;18.91;72.00;99885.66;4994301;28;20180;-87
2023/07/30 07:58:21;;;;;;;1.73;0.60;;;;;;;19.05;71.93;99895.28;5018929;28;20259;-87
2023/07/30 08:00:47;;;;;;;5.40;1.13;;;;;;;19.01;71.09;99898.03;4994581;28;20200;-87
2023/07/30 08:03:17;;;;;;;0.37;0.37;;;;;;;19.31;71.82;99911.75;4996537;28;20647;-86
2023/07/30 08:05:43;;;;;;;0.97;0.70;;;;;;;19.42;70.86;99915.41;5006347;28;20175;-88
2023/07/30 08:08:08;;;;;;;1.17;0.80;;;;;;;19.45;69.59;99900.78;4997930;28;20550;-88
2023/07/30 08:10:38;;;;;;;3.53;1.63;;;;;;;19.51;69.21;99915.06;5010112;28;20219;-88
2023/07/30 08:13:03;;;;;;;1.20;1.10;;;;;;;19.48;69.38;99913.06;5004622;28;20205;-86
2023/07/30 08:15:29;;;;;;;0.80;0.80;;;;;;;19.60;68.95;99913.56;5012059;28;20190;-87
2023/07/30 08:17:54;;;;;;;0.50;0.20;;;;;;;19.69;68.15;99904.94;5016394;28;20643;-88
2023/07/30 08:20:19;;;;;;;0.70;0.70;;;;;;;19.58;67.19;99879.91;5027901;28;20180;-87
2023/07/30 08:22:44;;;;;;;0.30;0.30;;;;;;;19.75;67.42;99899.81;4997879;28;20187;-87
2023/07/30 08:25:10;;;;;;;0.13;0.13;;;;;;;19.77;67.18;99891.91;4999271;28;20549;-88
2023/07/30 08:27:35;;;;;;;1.73;0.83;;;;;;;20.05;68.81;99907.91;5012446;28;20176;-88
2023/07/30 08:30:00;;;;;;;5.40;0.77;;;;;;;20.14;66.18;99889.75;5007635;28;20204;-88
2023/07/30 08:32:26;;;;;;;1.40;0.80;;;;;;;20.04;65.53;99882.16;4998049;28;20176;-87
2023/07/30 08:34:51;;;;;;;3.90;0.80;;;;;;;20.00;66.39;99880.56;5000183;28;20258;-88
2023/07/30 08:37:16;;;;;;;1.73;1.03;;;;;;;20.19;66.43;99891.34;5000038;28;20215;-88
2023/07/30 08:39:42;;;;;;;1.17;0.90;;;;;;;20.43;66.90;99892.66;4999494;28;20231;-87
2023/07/30 08:42:07;;;;;;;1.73;1.00;;;;;;;20.51;65.91;99877.59;5023762;28;20180;-87
2023/07/30 08:44:32;;;;;;;7.00;0.70;;;;;;;20.46;63.85;99872.44;5017852;28;20302;-88
2023/07/30 08:46:58;;;;;;;1.03;1.03;;;;;;;20.45;64.45;99865.31;5009128;28;20666;-89
2023/07/30 08:49:23;;;;;;;9.27;1.90;;;;;;;20.30;63.91;99860.88;5000037;28;20216;-88
2023/07/30 08:51:53;;;;;;;0.80;0.80;;;;;;;20.21;64.99;99864.00;5002868;28;20184;-86
2023/07/30 08:54:20;;;;;;;1.07;0.90;;;;;;;20.20;65.50;99856.84;5021441;28;20193;-87
2023/07/30 08:56:46;;;;;;;1.90;1.60;;;;;;;20.30;65.40;99858.88;5015446;28;20188;-88
2023/07/30 08:59:12;;;;;;;0.27;0.27;;;;;;;20.18;65.45;99856.47;5016283;28;20635;-88
2023/07/30 09:01:39;;;;;;;0.80;0.80;;;;;;;20.31;65.13;99854.13;5010485;28;20214;-88
2023/07/30 09:04:06;;;;;;;0.50;0.50;;;;;;;20.39;65.23;99850.16;5019294;28;20631;-88
2023/07/30 09:06:32;;;;;;;1.20;0.83;;;;;;;20.31;65.21;99851.34;5010336;28;20210;-88
2023/07/30 09:08:58;;;;;;;1.00;0.90;;;;;;;20.31;65.43;99852.16;5010411;28;20281;-88
2023/07/30 09:11:32;;;;;;;0.50;0.50;;;;;;;20.35;66.45;99871.56;5007473;28;20283;-87
2023/07/30 09:14:00;;;;;;;1.23;1.13;;;;;;;20.04;65.52;99854.41;5006708;28;20230;-87
2023/07/30 09:16:26;;;;;;;4.50;1.30;;;;;;;19.90;66.47;99857.91;5010161;28;20196;-88
2023/07/30 09:18:53;;;;;;;0.67;0.67;;;;;;;19.88;66.94;99856.72;5017885;28;20773;-86
2023/07/30 09:21:19;;;;;;;0.60;0.60;;;;;;;19.81;66.59;99843.59;5027483;28;20172;-85
2023/07/30 09:23:47;;;;;;;1.13;1.03;;;;;;;19.77;66.86;99850.31;5010515;28;20203;-85
2023/07/30 09:26:13;;;;;;;0.90;0.90;;;;;;;19.68;67.41;99866.53;5019852;28;20203;-85
2023/07/30 09:28:42;;;;;;;1.30;0.93;;;;;;;19.63;67.09;99870.44;5018364;28;20261;-85
2023/07/30 09:31:08;;;;;;;0.53;0.40;;;;;;;19.49;67.47;99860.03;5018681;28;20179;-85
2023/07/30 09:33:35;;;;;;;0.93;0.93;;;;;;;19.60;68.10;99874.78;5019619;28;20233;-85
2023/07/30 09:36:04;;;;;;;0.87;0.87;;;;;;;19.77;67.91;99880.81;5019226;28;20187;-85
2023/07/30 09:38:33;;;;;;;1.07;0.83;;;;;;;19.68;68.16;99885.94;5010424;28;20176;-84
2023/07/30 09:41:02;;;;;;;1.33;1.23;;;;;;;19.82;68.72;99908.19;5035703;28;20194;-85
2023/07/30 09:43:34;;;;;;;0.77;0.77;;;;;;;19.74;67.42;99881.59;5027722;28;20572;-85
2023/07/30 09:46:04;;;;;;;6.17;1.33;;;;;;;19.86;67.84;99895.13;5017336;28;20229;-85
2023/07/30 09:48:31;;;;;;;0.20;0.20;;;;;;;19.84;68.18;99897.50;5018246;28;20704;-86
2023/07/30 09:50:59;;;;;;;1.13;0.97;;;;;;;19.98;68.35;99896.78;5009867;28;20185;-85
2023/07/30 09:53:24;;;;;;;7.00;0.93;;;;;;;19.99;67.84;99909.47;5026255;28;20589;-85
2023/07/30 09:55:50;;;;;;;0.90;0.90;;;;;;;19.98;68.08;99894.81;5017634;28;20180;-86
2023/07/30 09:58:16;;;;;;;1.47;1.00;;;;;;;20.04;68.34;99906.31;5026716;28;20176;-85
2023/07/30 10:00:42;;;;;;;0.60;0.37;;;;;;;19.93;68.10;99897.94;5036198;28;20739;-85
2023/07/30 10:03:09;;;;;;;1.07;0.47;;;;;;;19.82;67.81;99889.56;5036867;28;20219;-85
2023/07/30 10:05:37;;;;;;;1.53;1.00;;;;;;;19.74;68.78;99884.38;5036250;28;20187;-85
2023/07/30 10:08:08;;;;;;;3.10;1.60;;;;;;;19.63;68.82;99886.28;5018180;28;20179;-85
2023/07/30 10:10:33;;;;;;;2.13;1.63;;;;;;;19.51;69.53;99893.69;5018772;28;20234;-85
2023/07/30 10:13:03;;;;;;;2.60;1.30;;;;;;;19.36;69.76;99894.75;5036241;28;20207;-85
2023/07/30 10:15:28;;;;;;;4.27;1.10;;;;;;;19.36;70.21;99905.03;5018290;28;20201;-86
2023/07/30 10:17:56;;;;;;;1.00;0.87;;;;;;;19.31;70.56;99898.69;5036482;28;20175;-85
2023/07/30 10:20:28;;;;;;;1.03;0.90;;;;;;;19.33;70.29;99912.16;5036245;28;20179;-86
2023/07/30 10:22:55;;;;;;;1.67;1.00;;;;;;;19.35;71.24;99912.56;5035149;28;20621;-85
2023/07/30 10:25:43;;;;;;;4.23;1.13;;;;;;;19.26;71.08;99914.88;5034592;28;20650;-85
2023/07/30 10:28:08;;;;;;;0.30;0.30;;;;;;;19.26;70.68;99923.19;5026713;28;20291;-85
2023/07/30 10:30:33;;;;;;;1.30;1.20;;;;;;;19.25;71.05;99927.94;5027091;28;20211;-85
2023/07/30 10:33:01;;;;;;;2.60;2.20;;;;;;;19.16;71.07;99927.44;5017226;28;20195;-85
2023/07/30 10:35:45;;;;;;;0.67;0.67;;;;;;;19.17;71.17;99929.03;5017146;28;20183;-86
2023/07/30 10:38:24;;;;;;;1.23;1.23;;;;;;;19.26;70.57;99920.41;5016698;28;20179;-85
2023/07/30 10:41:05;;;;;;;0.73;0.73;;;;;;;19.38;70.13;99924.84;5018611;28;20175;-84
2023/07/30 10:43:35;;;;;;;0.60;0.60;;;;;;;19.36;70.09;99929.97;5035297;28;20727;-84
2023/07/30 10:46:00;;;;;;;9.83;1.30;;;;;;;19.34;70.24;99927.59;5017071;28;20603;-85
2023/07/30 10:48:36;;;;;;;3.17;2.00;;;;;;;19.21;70.93;99934.59;5035178;28;20199;-85
2023/07/30 10:51:05;;;;;;;7.07;2.00;;;;;;;18.92;72.25;99931.56;5034545;28;20205;-85
2023/07/30 10:53:30;;;;;;;7.17;1.37;;;;;;;19.01;73.42;99945.09;5033927;28;20287;-84
2023/07/30 10:56:03;;;;;;;0.73;0.70;;;;;;;19.11;72.87;99949.16;5033811;28;20176;-85
2023/07/30 10:58:31;;;;;;;12.63;1.80;;;;;;;19.26;73.19;99939.81;5015218;28;20208;-84
2023/07/30 11:00:56;;;;;;;8.30;1.37;;;;;;;19.26;73.16;99953.66;5015642;28;20249;-86
2023/07/30 11:03:26;;;;;;;1.37;1.37;;;;;;;19.22;73.35;99942.53;5032847;28;20685;-84
2023/07/30 11:05:52;;;;;;;0.30;0.30;;;;;;;19.41;73.48;99949.84;5014837;28;20723;-85
2023/07/30 11:08:17;;;;;;;1.33;1.23;;;;;;;19.56;73.26;99948.00;5014538;28;20207;-85
2023/07/30 11:10:46;;;;;;;1.77;1.07;;;;;;;19.42;73.88;99947.84;5024383;28;20176;-84
2023/07/30 11:13:13;;;;;;;18.97;1.33;;;;;;;19.51;73.32;99946.31;5032077;28;20580;-85
2023/07/30 11:15:44;;;;;;;6.77;2.73;;;;;;;19.40;74.04;99945.47;5032433;28;20192;-86
2023/07/30 11:18:12;;;;;;;0.90;0.90;;;;;;;19.38;74.22;99936.72;5031716;28;20595;-86
2023/07/30 11:20:37;;;;;;;15.57;1.80;;;;;;;19.43;73.88;99924.50;4999560;28;20191;-85
2023/07/30 11:23:20;;;;;;;1.93;1.77;;;;;;;19.44;72.90;99935.19;5015376;28;20211;-85